Time;durP1;ratioP1;P1;durP2;ratioP2;P2;SDS_P1;SDS_P2;PMS_P1;PMS_P2;Temp;Humidity;BMP_temperature;BMP_pressure;BME280_temperature;BME280_humidity;BME280_pressure;Samples;Min_cycle;Max_cycle;Signal;HPM_P1;HPM_P2
2021/04/30 00:00:02;;;;;;;34.70;15.00;;;7.70;95.80;;;;;;5072081;28;20384;-79
2021/04/30 00:02:28;;;;;;;36.40;15.77;;;7.70;95.80;;;;;;5036099;28;20164;-72
2021/04/30 00:04:53;;;;;;;29.07;16.17;;;7.70;95.80;;;;;;5035863;28;20528;-72
2021/04/30 00:07:19;;;;;;;34.67;16.60;;;7.70;95.80;;;;;;5053149;28;20032;-73
2021/04/30 00:09:44;;;;;;;31.67;15.70;;;7.80;95.80;;;;;;5054532;28;20090;-73
2021/04/30 00:12:10;;;;;;;31.83;14.93;;;7.80;95.80;;;;;;5020302;28;20170;-73
2021/04/30 00:14:36;;;;;;;31.77;16.00;;;7.80;95.80;;;;;;5019797;28;20029;-71
2021/04/30 00:17:01;;;;;;;35.60;15.43;;;7.80;95.80;;;;;;5054320;28;20021;-73
2021/04/30 00:19:27;;;;;;;27.07;16.53;;;7.80;95.80;;;;;;5054668;28;20053;-74
2021/04/30 00:21:53;;;;;;;34.47;16.70;;;7.80;95.70;;;;;;5036960;28;20025;-72
2021/04/30 00:24:18;;;;;;;32.03;16.80;;;7.80;95.70;;;;;;5054506;28;20057;-71
2021/04/30 00:26:44;;;;;;;28.43;14.83;;;7.80;95.70;;;;;;5054498;28;20103;-71
2021/04/30 00:29:09;;;;;;;31.13;15.20;;;7.80;95.60;;;;;;5036501;28;20040;-76
2021/04/30 00:31:35;;;;;;;28.23;14.20;;;7.80;95.60;;;;;;5036452;28;20035;-73
2021/04/30 00:34:03;;;;;;;31.13;14.97;;;7.90;95.60;;;;;;5036428;28;20071;-72
2021/04/30 00:36:28;;;;;;;31.13;15.30;;;7.90;95.60;;;;;;5054073;28;20029;-71
2021/04/30 00:38:54;;;;;;;26.27;13.73;;;7.90;95.60;;;;;;5054195;28;20507;-71
2021/04/30 00:41:20;;;;;;;32.57;14.97;;;8.00;95.60;;;;;;5054102;28;20469;-72
2021/04/30 00:43:45;;;;;;;38.23;15.77;;;8.00;95.50;;;;;;5054089;28;20057;-71
2021/04/30 00:46:11;;;;;;;32.37;14.87;;;7.90;95.50;;;;;;5036100;28;20029;-72
2021/04/30 00:48:38;;;;;;;36.10;15.23;;;8.00;95.40;;;;;;5054140;28;20036;-71
2021/04/30 00:51:04;;;;;;;35.70;15.47;;;8.00;95.40;;;;;;5054008;28;20029;-73
2021/04/30 00:53:30;;;;;;;29.27;15.83;;;8.00;95.40;;;;;;5053971;28;20033;-70
2021/04/30 00:55:55;;;;;;;30.63;16.50;;;8.00;95.40;;;;;;5036102;28;20033;-71
2021/04/30 00:58:21;;;;;;;28.57;15.60;;;8.00;95.40;;;;;;5053663;28;20025;-72
2021/04/30 01:00:47;;;;;;;33.10;16.67;;;8.00;95.40;;;;;;5053765;28;20104;-70
2021/04/30 01:03:13;;;;;;;39.90;18.17;;;8.00;95.30;;;;;;5035883;28;20104;-71
2021/04/30 01:05:39;;;;;;;33.53;17.47;;;8.00;95.30;;;;;;5035801;28;20071;-71
2021/04/30 01:08:06;;;;;;;31.43;15.47;;;8.00;95.30;;;;;;5053743;28;20029;-77
2021/04/30 01:10:32;;;;;;;38.33;17.77;;;8.00;95.30;;;;;;5053603;28;20512;-76
2021/04/30 01:12:58;;;;;;;31.83;16.60;;;7.90;95.30;;;;;;5035889;28;20041;-76
2021/04/30 01:15:25;;;;;;;35.70;16.63;;;8.00;95.30;;;;;;5053478;28;20362;-76
2021/04/30 01:17:51;;;;;;;24.20;13.83;;;8.00;95.30;;;;;;5053546;28;20056;-76
2021/04/30 01:20:19;;;;;;;27.13;15.23;;;8.00;95.30;;;;;;5052659;28;20045;-77
2021/04/30 01:22:53;;;;;;;30.63;16.70;;;8.00;95.30;;;;;;5053551;28;20061;-78
2021/04/30 01:25:20;;;;;;;;;;;8.10;95.60;;;;;;5053833;28;20375;-76
2021/04/30 01:27:46;;;;;;;30.67;16.33;;;8.00;95.30;;;;;;5053395;28;19947;-76
2021/04/30 01:30:13;;;;;;;31.10;16.30;;;8.00;95.30;;;;;;5035459;28;20064;-76
2021/04/30 01:32:39;;;;;;;29.40;15.90;;;8.00;95.30;;;;;;5035407;28;20033;-78
2021/04/30 01:35:08;;;;;;;35.50;17.40;;;8.00;95.30;;;;;;5053203;28;20435;-76
2021/04/30 01:37:33;;;;;;;29.60;16.57;;;8.00;95.30;;;;;;5035400;28;20124;-77
2021/04/30 01:39:59;;;;;;;36.40;18.17;;;8.00;95.30;;;;;;5035450;28;20112;-76
2021/04/30 01:42:25;;;;;;;37.40;18.50;;;8.00;95.30;;;;;;5053177;28;20473;-76
2021/04/30 01:44:51;;;;;;;37.73;17.23;;;8.00;95.30;;;;;;5053083;28;20095;-76
2021/04/30 01:47:17;;;;;;;30.53;16.40;;;8.00;95.30;;;;;;5053137;28;20025;-79
2021/04/30 01:49:44;;;;;;;27.63;16.83;;;8.00;95.20;;;;;;5035193;28;20033;-76
2021/04/30 01:52:09;;;;;;;30.40;15.33;;;8.00;95.20;;;;;;5035410;28;20037;-75
2021/04/30 01:54:35;;;;;;;39.50;17.60;;;8.10;95.20;;;;;;5052990;28;20033;-75
2021/04/30 01:57:01;;;;;;;31.60;15.63;;;8.00;95.10;;;;;;5018652;28;20026;-76
2021/04/30 01:59:26;;;;;;;29.60;15.53;;;8.10;95.10;;;;;;5018668;28;20061;-76
2021/04/30 02:01:52;;;;;;;29.40;16.27;;;8.10;95.10;;;;;;5035205;28;20033;-75
2021/04/30 02:04:18;;;;;;;27.77;15.23;;;8.20;95.10;;;;;;5018781;28;20021;-75
2021/04/30 02:06:46;;;;;;;27.13;15.50;;;8.10;95.00;;;;;;5052956;28;20366;-75
2021/04/30 02:09:12;;;;;;;34.07;16.50;;;8.20;95.00;;;;;;5052894;28;20100;-75
2021/04/30 02:11:38;;;;;;;26.00;14.83;;;8.20;95.00;;;;;;5034919;28;20400;-75
2021/04/30 02:14:06;;;;;;;29.17;14.00;;;8.20;95.00;;;;;;5035062;28;20025;-75
2021/04/30 02:16:33;;;;;;;27.33;15.30;;;8.20;95.20;;;;;;5052956;28;20392;-75
2021/04/30 02:18:59;;;;;;;35.40;15.60;;;8.20;94.90;;;;;;5034827;28;20045;-75
2021/04/30 02:21:24;;;;;;;27.93;14.40;;;8.20;94.90;;;;;;5052838;28;20036;-75
2021/04/30 02:23:50;;;;;;;35.50;16.53;;;8.20;94.90;;;;;;5034984;28;20393;-75
2021/04/30 02:26:16;;;;;;;26.90;15.03;;;8.20;94.80;;;;;;5052832;28;20057;-76
2021/04/30 02:28:45;;;;;;;30.93;14.23;;;8.20;94.80;;;;;;5052780;28;20052;-76
2021/04/30 02:31:11;;;;;;;27.37;14.47;;;8.20;94.80;;;;;;5053503;28;20476;-75
2021/04/30 02:33:37;;;;;;;37.27;16.40;;;8.20;94.80;;;;;;5056491;28;20469;-75
2021/04/30 02:36:03;;;;;;;29.70;15.40;;;8.20;94.80;;;;;;5056496;28;20079;-76
2021/04/30 02:38:31;;;;;;;35.40;15.83;;;8.20;94.80;;;;;;5056542;28;20112;-77
2021/04/30 02:40:57;;;;;;;26.53;15.23;;;8.20;94.70;;;;;;5038871;28;20052;-77
2021/04/30 02:43:23;;;;;;;30.83;15.93;;;8.20;94.70;;;;;;5038434;28;20397;-76
2021/04/30 02:45:52;;;;;;;29.00;15.03;;;8.20;94.70;;;;;;5038694;28;20025;-76
2021/04/30 02:48:40;;;;;;;28.03;14.90;;;8.20;94.70;;;;;;5039214;28;20029;-76
2021/04/30 02:51:08;;;;;;;30.10;14.97;;;8.20;94.70;;;;;;5056235;28;20457;-76
2021/04/30 02:53:34;;;;;;;29.40;14.63;;;8.20;94.60;;;;;;5038329;28;20028;-75
2021/04/30 02:56:00;;;;;;;25.73;14.07;;;8.30;94.60;;;;;;5038362;28;20091;-76
2021/04/30 02:58:26;;;;;;;24.53;14.17;;;8.30;94.60;;;;;;5038309;28;20427;-75
2021/04/30 03:00:52;;;;;;;27.77;13.70;;;8.40;94.70;;;;;;5038564;28;20037;-75
2021/04/30 03:03:18;;;;;;;29.67;13.03;;;8.30;94.60;;;;;;5038384;28;20083;-75
2021/04/30 03:05:44;;;;;;;33.00;13.20;;;8.30;94.60;;;;;;5055925;28;20491;-76
2021/04/30 03:08:09;;;;;;;30.10;14.07;;;8.30;94.60;;;;;;5038049;28;20036;-76
2021/04/30 03:10:35;;;;;;;29.23;13.77;;;8.30;94.60;;;;;;5038170;28;20029;-76
2021/04/30 03:13:01;;;;;;;29.20;13.57;;;8.20;94.50;;;;;;5055933;28;20488;-77
2021/04/30 03:15:27;;;;;;;23.40;13.13;;;8.20;94.50;;;;;;5055693;28;20057;-75
2021/04/30 03:17:53;;;;;;;27.90;13.97;;;8.20;94.50;;;;;;5021485;28;20392;-76
2021/04/30 03:20:19;;;;;;;24.73;12.60;;;8.30;94.60;;;;;;5055620;28;20052;-75
2021/04/30 03:22:46;;;;;;;25.10;13.33;;;8.20;94.60;;;;;;5055668;28;20025;-76
2021/04/30 03:25:13;;;;;;;24.47;12.97;;;8.20;94.50;;;;;;5055679;28;20027;-75
2021/04/30 03:27:39;;;;;;;22.80;12.83;;;8.20;94.50;;;;;;5037816;28;20029;-76
2021/04/30 03:30:06;;;;;;;30.03;14.07;;;8.30;94.50;;;;;;5037738;28;20036;-75
2021/04/30 03:32:32;;;;;;;28.10;14.63;;;8.30;94.40;;;;;;5055460;28;20115;-75
2021/04/30 03:34:58;;;;;;;31.27;15.60;;;8.30;94.40;;;;;;5037489;28;20129;-71
2021/04/30 03:37:24;;;;;;;28.63;14.93;;;8.30;94.40;;;;;;5055558;28;20029;-71
2021/04/30 03:39:50;;;;;;;32.77;16.03;;;8.20;94.40;;;;;;5055403;28;20025;-71
2021/04/30 03:42:16;;;;;;;37.67;17.27;;;8.30;94.40;;;;;;5055159;28;20039;-71
2021/04/30 03:44:41;;;;;;;37.00;16.57;;;8.30;94.30;;;;;;5054717;28;20025;-71
2021/04/30 03:47:07;;;;;;;29.20;15.63;;;8.30;94.30;;;;;;5055174;28;20033;-71
2021/04/30 03:49:32;;;;;;;28.10;16.13;;;8.20;94.30;;;;;;5055309;28;20065;-71
2021/04/30 03:51:58;;;;;;;26.33;15.33;;;8.30;94.30;;;;;;5037232;28;20036;-70
2021/04/30 03:54:24;;;;;;;32.17;16.50;;;8.30;94.30;;;;;;5037291;28;20033;-71
2021/04/30 03:56:50;;;;;;;30.27;15.23;;;8.30;94.30;;;;;;5037219;28;20057;-71
2021/04/30 03:59:15;;;;;;;32.33;15.07;;;8.30;94.30;;;;;;5055279;28;20021;-71
2021/04/30 04:01:41;;;;;;;33.47;15.53;;;8.30;94.30;;;;;;5046702;28;20032;-71
2021/04/30 04:04:06;;;;;;;35.10;17.03;;;8.40;94.30;;;;;;5056299;28;20087;-70
2021/04/30 04:06:32;;;;;;;31.60;15.53;;;8.40;94.30;;;;;;5055396;28;20032;-71
2021/04/30 04:08:58;;;;;;;29.93;14.37;;;8.40;94.30;;;;;;5073773;28;20035;-70
2021/04/30 04:11:24;;;;;;;26.67;15.20;;;8.40;94.30;;;;;;5074685;28;20472;-71
2021/04/30 04:13:49;;;;;;;31.57;14.67;;;8.40;94.30;;;;;;5056837;28;20044;-71
2021/04/30 04:16:15;;;;;;;29.70;15.87;;;8.40;94.30;;;;;;5073773;28;20037;-71
2021/04/30 04:18:40;;;;;;;28.00;15.30;;;8.40;94.30;;;;;;5056658;28;20059;-71
2021/04/30 04:21:06;;;;;;;28.50;15.80;;;8.50;94.30;;;;;;5056710;28;20028;-70
2021/04/30 04:23:32;;;;;;;32.77;14.97;;;8.50;94.30;;;;;;5039925;28;20027;-71
2021/04/30 04:25:57;;;;;;;29.83;14.57;;;8.40;94.20;;;;;;5074537;28;20037;-71
2021/04/30 04:28:23;;;;;;;31.50;16.00;;;8.50;94.20;;;;;;5074556;28;20033;-71
2021/04/30 04:30:52;;;;;;;29.80;16.10;;;8.50;94.20;;;;;;5056525;28;20392;-71
2021/04/30 04:33:17;;;;;;;27.43;15.90;;;8.50;94.20;;;;;;5074516;28;20121;-70
2021/04/30 04:35:43;;;;;;;34.23;15.60;;;8.50;94.20;;;;;;5074127;28;20119;-70
2021/04/30 04:38:09;;;;;;;33.77;15.33;;;8.60;94.20;;;;;;5056158;28;20107;-71
2021/04/30 04:40:34;;;;;;;36.00;16.50;;;8.60;94.20;;;;;;5056224;28;20025;-71
2021/04/30 04:43:00;;;;;;;35.73;15.70;;;8.60;94.20;;;;;;5039547;28;20115;-71
2021/04/30 04:45:25;;;;;;;28.63;15.33;;;8.60;94.20;;;;;;5056272;28;20037;-71
2021/04/30 04:47:51;;;;;;;32.50;16.53;;;8.60;94.10;;;;;;5074119;28;20462;-71
2021/04/30 04:50:17;;;;;;;34.97;16.10;;;8.60;94.10;;;;;;5056208;28;20040;-70
2021/04/30 04:52:43;;;;;;;35.00;16.70;;;8.70;94.10;;;;;;5056120;28;20047;-71
2021/04/30 04:55:16;;;;;;;32.57;16.80;;;8.60;94.00;;;;;;5055238;28;20479;-71
2021/04/30 04:57:42;;;;;;;40.77;18.00;;;8.70;94.00;;;;;;5055733;28;20395;-71
2021/04/30 05:00:09;;;;;;;34.03;16.00;;;8.80;94.10;;;;;;5055726;28;20535;-71
2021/04/30 05:02:35;;;;;;;33.60;16.37;;;8.70;94.00;;;;;;5056031;28;20487;-71
2021/04/30 05:05:01;;;;;;;34.33;16.57;;;8.70;94.00;;;;;;5039503;28;20024;-71
2021/04/30 05:07:27;;;;;;;31.83;16.27;;;8.70;94.00;;;;;;5055917;28;20037;-70
2021/04/30 05:09:52;;;;;;;30.23;15.57;;;8.80;93.90;;;;;;5073545;28;20169;-71
2021/04/30 05:12:18;;;;;;;25.90;13.70;;;8.80;93.90;;;;;;5055929;28;20045;-71
2021/04/30 05:14:44;;;;;;;27.17;13.77;;;8.70;93.80;;;;;;5071921;28;20032;-76
2021/04/30 05:17:09;;;;;;;26.03;13.63;;;8.80;93.80;;;;;;5054712;28;20052;-76
2021/04/30 05:19:35;;;;;;;27.50;14.43;;;8.80;93.80;;;;;;5072394;28;20098;-76
2021/04/30 05:22:05;;;;;;;22.63;13.37;;;8.80;93.80;;;;;;5073553;28;20388;-76
2021/04/30 05:24:31;;;;;;;27.13;14.17;;;8.80;93.80;;;;;;5055448;28;20021;-76
2021/04/30 05:26:57;;;;;;;24.67;13.50;;;8.90;93.90;;;;;;5073572;28;20422;-75
2021/04/30 05:29:23;;;;;;;28.50;13.70;;;8.90;93.90;;;;;;5073219;28;20111;-76
2021/04/30 05:31:48;;;;;;;23.33;12.93;;;8.90;93.80;;;;;;5073357;28;20108;-76
2021/04/30 05:34:14;;;;;;;33.17;13.80;;;8.90;93.80;;;;;;5072935;28;20096;-76
2021/04/30 05:36:39;;;;;;;27.10;13.53;;;8.90;93.80;;;;;;5079396;28;20037;-75
2021/04/30 05:39:05;;;;;;;29.83;14.40;;;8.90;93.80;;;;;;5074179;28;20497;-75
2021/04/30 05:41:31;;;;;;;34.97;15.93;;;9.00;93.80;;;;;;5073259;28;20032;-75
2021/04/30 05:43:58;;;;;;;28.33;14.47;;;9.00;93.70;;;;;;5078397;28;20071;-75
2021/04/30 05:46:24;;;;;;;33.03;14.97;;;9.00;93.70;;;;;;5076285;28;20077;-75
2021/04/30 05:48:49;;;;;;;26.50;14.53;;;9.10;93.70;;;;;;5057670;28;20016;-77
2021/04/30 05:51:15;;;;;;;29.10;14.50;;;9.10;93.70;;;;;;5060349;28;20043;-75
2021/04/30 05:53:41;;;;;;;25.30;13.50;;;9.10;93.70;;;;;;5060636;28;20058;-75
2021/04/30 05:56:07;;;;;;;26.83;12.77;;;9.10;93.60;;;;;;5079734;28;20082;-75
2021/04/30 05:58:32;;;;;;;23.97;12.20;;;9.10;93.60;;;;;;5086811;28;20020;-75
2021/04/30 06:00:58;;;;;;;29.17;12.57;;;9.20;93.60;;;;;;5090630;28;20043;-74
2021/04/30 06:03:23;;;;;;;30.37;12.37;;;9.20;93.60;;;;;;5093292;28;20021;-75
2021/04/30 06:05:49;;;;;;;32.13;12.57;;;9.20;93.60;;;;;;5078450;28;20032;-75
2021/04/30 06:08:15;;;;;;;23.17;11.33;;;9.30;93.60;;;;;;5070444;28;20028;-75
2021/04/30 06:10:40;;;;;;;22.63;11.53;;;9.30;93.50;;;;;;5082759;28;20035;-75
2021/04/30 06:13:07;;;;;;;25.90;12.10;;;9.30;93.40;;;;;;5077292;28;20032;-76
2021/04/30 06:15:33;;;;;;;26.97;12.47;;;9.30;93.40;;;;;;5059127;28;20032;-75
2021/04/30 06:17:59;;;;;;;36.43;12.70;;;9.40;93.30;;;;;;5079637;28;20020;-76
2021/04/30 06:20:25;;;;;;;31.73;13.20;;;9.30;93.30;;;;;;5076976;28;20052;-75
2021/04/30 06:22:51;;;;;;;28.67;13.47;;;9.30;93.20;;;;;;5077140;28;20502;-75
2021/04/30 06:25:16;;;;;;;26.30;13.63;;;9.30;93.20;;;;;;5059148;28;20120;-75
2021/04/30 06:27:42;;;;;;;29.30;13.60;;;9.30;93.20;;;;;;5091057;28;20390;-75
2021/04/30 06:30:08;;;;;;;28.37;14.17;;;9.30;93.10;;;;;;5097854;28;20081;-75
2021/04/30 06:32:35;;;;;;;31.07;14.27;;;9.30;93.10;;;;;;5065872;28;20033;-75
2021/04/30 06:35:00;;;;;;;28.10;13.33;;;9.30;93.10;;;;;;5063232;28;20127;-75
2021/04/30 06:37:26;;;;;;;25.77;14.07;;;9.30;93.10;;;;;;5063899;28;20451;-75
2021/04/30 06:39:53;;;;;;;26.50;13.47;;;9.40;93.00;;;;;;5093332;28;20028;-77
2021/04/30 06:42:19;;;;;;;23.70;13.37;;;9.40;93.00;;;;;;5084137;28;20020;-75
2021/04/30 06:44:45;;;;;;;29.97;15.07;;;9.40;93.10;;;;;;5078861;28;20027;-75
2021/04/30 06:47:10;;;;;;;32.30;15.07;;;9.40;93.00;;;;;;5060945;28;20139;-76
2021/04/30 06:49:36;;;;;;;29.97;14.67;;;9.50;93.10;;;;;;5055936;28;20069;-77
2021/04/30 06:52:01;;;;;;;27.87;13.83;;;9.40;93.00;;;;;;5068298;28;20029;-76
2021/04/30 06:54:28;;;;;;;33.57;14.70;;;9.50;93.00;;;;;;5043208;28;20024;-76
2021/04/30 06:56:54;;;;;;;27.77;14.63;;;9.60;93.00;;;;;;5058665;28;20062;-76
2021/04/30 06:59:19;;;;;;;27.93;15.93;;;9.50;92.90;;;;;;5083556;28;20099;-77
2021/04/30 07:01:45;;;;;;;31.73;15.93;;;9.60;92.90;;;;;;5081515;28;20025;-76
2021/04/30 07:04:10;;;;;;;30.43;15.53;;;9.70;92.90;;;;;;5096090;28;20024;-77
2021/04/30 07:06:36;;;;;;;29.43;16.17;;;9.70;92.90;;;;;;5087429;28;20441;-77
2021/04/30 07:09:02;;;;;;;24.97;16.13;;;9.90;92.90;;;;;;5067301;28;20031;-77
2021/04/30 07:11:28;;;;;;;25.57;16.13;;;9.90;92.90;;;;;;5081240;28;20103;-75
2021/04/30 07:13:54;;;;;;;29.60;17.33;;;9.90;92.80;;;;;;5076009;28;20052;-75
2021/04/30 07:16:20;;;;;;;31.27;17.57;;;10.00;92.80;;;;;;5041792;28;20111;-75
2021/04/30 07:18:45;;;;;;;22.97;15.10;;;10.10;92.80;;;;;;5056844;28;20074;-76
2021/04/30 07:21:11;;;;;;;29.43;16.43;;;10.10;92.70;;;;;;5058226;28;20082;-77
2021/04/30 07:23:38;;;;;;;23.43;16.37;;;10.20;92.60;;;;;;5075959;28;20043;-75
2021/04/30 07:26:04;;;;;;;24.40;15.10;;;10.20;92.60;;;;;;5076134;28;20452;-76
2021/04/30 07:28:30;;;;;;;24.70;16.33;;;10.30;92.60;;;;;;5058099;28;20078;-72
2021/04/30 07:30:56;;;;;;;29.27;16.90;;;10.40;92.50;;;;;;5057839;28;20108;-72
2021/04/30 07:33:21;;;;;;;27.10;15.57;;;10.50;92.50;;;;;;5058177;28;20040;-72
2021/04/30 07:35:47;;;;;;;25.83;16.73;;;10.60;92.40;;;;;;5041645;28;20048;-71
2021/04/30 07:38:13;;;;;;;26.23;17.27;;;10.80;92.30;;;;;;5075753;28;20036;-71
2021/04/30 07:40:40;;;;;;;25.20;17.63;;;10.90;92.20;;;;;;5057820;28;20460;-71
2021/04/30 07:43:07;;;;;;;24.30;15.73;;;11.10;92.00;;;;;;5075678;28;20536;-71
2021/04/30 07:45:34;;;;;;;25.90;16.65;;;11.20;91.80;;;;;;5075287;28;20048;-70
2021/04/30 07:48:00;;;;;;;26.70;16.53;;;11.30;91.70;;;;;;5057540;28;20416;-71
2021/04/30 07:50:26;;;;;;;24.73;16.58;;;11.40;91.50;;;;;;5024345;28;20110;-71
2021/04/30 07:52:51;;;;;;;22.35;15.73;;;11.40;91.30;;;;;;5057503;28;20036;-71
2021/04/30 07:55:17;;;;;;;25.00;15.63;;;11.50;91.10;;;;;;5040712;28;20037;-71
2021/04/30 07:57:43;;;;;;;23.33;16.13;;;11.60;90.80;;;;;;5057085;28;20611;-71
2021/04/30 08:00:10;;;;;;;26.67;16.40;;;11.50;90.60;;;;;;5075902;28;20028;-72
2021/04/30 08:02:36;;;;;;;28.87;16.63;;;11.60;90.50;;;;;;5072760;28;20033;-72
2021/04/30 08:05:01;;;;;;;23.50;15.88;;;11.60;90.30;;;;;;5074507;28;20086;-72
2021/04/30 08:07:27;;;;;;;23.53;16.40;;;11.60;90.20;;;;;;5073788;28;20036;-72
2021/04/30 08:09:55;;;;;;;23.58;16.15;;;11.70;90.20;;;;;;5056843;28;20115;-72
2021/04/30 08:12:22;;;;;;;31.05;18.38;;;11.80;90.00;;;;;;5057800;28;20067;-72
2021/04/30 08:14:47;;;;;;;25.25;17.38;;;11.80;89.10;;;;;;5060450;28;20039;-73
2021/04/30 08:17:13;;;;;;;27.83;16.40;;;11.80;88.90;;;;;;5057875;28;20389;-71
2021/04/30 08:19:39;;;;;;;26.48;16.45;;;11.90;89.00;;;;;;5056683;28;20480;-72
2021/04/30 08:22:04;;;;;;;29.10;17.70;;;11.90;88.90;;;;;;5073725;28;20033;-74
2021/04/30 08:24:30;;;;;;;27.52;16.52;;;12.00;88.40;;;;;;5059060;28;20039;-71
2021/04/30 08:26:56;;;;;;;24.90;16.27;;;12.20;88.30;;;;;;5084274;28;20377;-73
2021/04/30 08:29:22;;;;;;;27.48;16.63;;;12.20;88.00;;;;;;5091882;28;20032;-72
2021/04/30 08:31:47;;;;;;;28.42;16.08;;;12.30;87.80;;;;;;5079508;28;20218;-72
2021/04/30 08:34:13;;;;;;;26.95;16.77;;;12.40;87.20;;;;;;5056577;28;20037;-72
2021/04/30 08:36:39;;;;;;;21.88;15.07;;;12.40;86.90;;;;;;5074443;28;20039;-71
2021/04/30 08:39:05;;;;;;;26.25;15.35;;;12.30;86.40;;;;;;5056661;28;20453;-71
2021/04/30 08:41:34;;;;;;;23.45;17.02;;;12.50;86.30;;;;;;5074395;28;20108;-74
2021/04/30 08:44:00;;;;;;;25.35;15.85;;;12.50;85.80;;;;;;5056800;28;20056;-71
2021/04/30 08:46:26;;;;;;;25.15;16.58;;;12.50;85.90;;;;;;5074265;28;20032;-72
2021/04/30 08:48:51;;;;;;;27.00;17.13;;;12.50;85.50;;;;;;5055666;28;20064;-73
2021/04/30 08:51:17;;;;;;;25.55;16.17;;;12.50;85.00;;;;;;5055633;28;20468;-73
2021/04/30 08:53:43;;;;;;;24.83;17.05;;;12.50;84.70;;;;;;5055589;28;20119;-73
2021/04/30 08:56:09;;;;;;;25.30;16.40;;;12.50;84.10;;;;;;5055723;28;20090;-72
2021/04/30 08:58:37;;;;;;;25.58;16.70;;;12.50;83.70;;;;;;5073596;28;20033;-73
2021/04/30 09:01:04;;;;;;;22.30;15.88;;;12.40;83.60;;;;;;5053974;28;20063;-72
2021/04/30 09:03:32;;;;;;;25.52;16.95;;;12.50;83.30;;;;;;5065946;28;20051;-74
2021/04/30 09:05:59;;;;;;;29.10;16.95;;;12.40;82.70;;;;;;5053761;28;20037;-72
2021/04/30 09:08:25;;;;;;;25.85;17.60;;;12.30;82.50;;;;;;5053769;28;20385;-72
2021/04/30 09:10:51;;;;;;;27.70;18.95;;;12.10;82.70;;;;;;5035935;28;20541;-72
2021/04/30 09:13:21;;;;;;;27.38;18.25;;;12.10;82.20;;;;;;5053809;28;20144;-70
2021/04/30 09:16:01;;;;;;;30.33;18.20;;;12.10;82.30;;;;;;5054033;28;20507;-73
2021/04/30 09:18:28;;;;;;;30.55;19.27;;;12.10;82.70;;;;;;5054239;28;20465;-72
2021/04/30 09:20:55;;;;;;;32.05;19.40;;;12.10;82.50;;;;;;5035772;28;20037;-74
2021/04/30 09:23:40;;;;;;;29.88;18.10;;;12.10;82.60;;;;;;5052475;28;20025;-72
2021/04/30 09:26:31;;;;;;;24.38;16.92;;;12.20;82.70;;;;;;5052298;28;20115;-72
2021/04/30 09:28:58;;;;;;;23.92;16.33;;;12.20;82.80;;;;;;5074618;28;20032;-72
2021/04/30 09:31:40;;;;;;;22.00;15.63;;;12.30;82.90;;;;;;5094019;28;20039;-73
2021/04/30 09:34:28;;;;;;;23.10;16.92;;;12.40;82.80;;;;;;5078920;28;20032;-72
2021/04/30 09:37:16;;;;;;;25.15;16.98;;;12.50;82.50;;;;;;5055071;28;20037;-72
2021/04/30 09:40:05;;;;;;;25.65;16.98;;;12.70;82.20;;;;;;5073336;28;20021;-72
2021/04/30 09:42:32;;;;;;;25.25;16.95;;;12.60;81.30;;;;;;5051941;28;20044;-73
2021/04/30 09:45:06;;;;;;;26.55;17.63;;;12.60;81.40;;;;;;5073462;28;20469;-73
2021/04/30 09:47:34;;;;;;;26.67;17.25;;;12.70;81.30;;;;;;5055237;28;20111;-72
2021/04/30 09:50:02;;;;;;;23.70;16.98;;;12.60;81.00;;;;;;5055500;28;20074;-70
2021/04/30 09:52:31;;;;;;;25.10;17.35;;;12.70;81.70;;;;;;5055085;28;20017;-71
2021/04/30 09:55:03;;;;;;;27.90;19.35;;;12.70;80.90;;;;;;5072991;28;20029;-72
2021/04/30 09:57:30;;;;;;;25.67;18.23;;;12.80;80.10;;;;;;5054928;28;20020;-71
2021/04/30 10:00:00;;;;;;;24.40;18.50;;;12.70;80.00;;;;;;5073246;28;20073;-71
2021/04/30 10:02:30;;;;;;;23.20;17.92;;;12.70;80.20;;;;;;5073036;28;20020;-70
2021/04/30 10:05:13;;;;;;;29.63;19.40;;;12.60;80.20;;;;;;5054989;28;20168;-73
2021/04/30 10:07:41;;;;;;;28.33;19.57;;;12.70;79.90;;;;;;5073027;28;20031;-72
2021/04/30 10:10:12;;;;;;;28.00;18.85;;;12.70;79.70;;;;;;5038839;28;20358;-71
2021/04/30 10:13:03;;;;;;;27.67;18.75;;;12.60;79.60;;;;;;5073233;28;20044;-73
2021/04/30 10:15:29;;;;;;;23.75;18.20;;;12.50;79.60;;;;;;5081115;28;20056;-70
2021/04/30 10:17:56;;;;;;;30.73;20.20;;;12.50;79.50;;;;;;5058465;28;20056;-72
2021/04/30 10:20:22;;;;;;;27.45;19.13;;;12.40;79.70;;;;;;5058620;28;20048;-70
2021/04/30 10:22:50;;;;;;;26.15;18.98;;;12.40;79.80;;;;;;5093087;28;20469;-73
2021/04/30 10:25:19;;;;;;;28.33;20.27;;;12.20;79.90;;;;;;5093283;28;20551;-72
2021/04/30 10:27:45;;;;;;;28.35;20.70;;;12.20;79.60;;;;;;5056955;28;20048;-78
2021/04/30 10:30:20;;;;;;;32.80;21.10;;;12.20;79.90;;;;;;5072888;28;20107;-77
2021/04/30 10:32:51;;;;;;;28.15;20.90;;;12.10;80.00;;;;;;5072818;28;20427;-77
2021/04/30 10:35:32;;;;;;;31.48;21.15;;;12.10;80.30;;;;;;5091029;28;20020;-76
2021/04/30 10:38:06;;;;;;;27.27;20.33;;;12.00;80.50;;;;;;5052770;28;20029;-77
2021/04/30 10:40:32;;;;;;;22.30;15.13;;;12.10;80.90;;;;;;5073222;28;20379;-77
2021/04/30 10:42:58;;;;;;;28.85;20.08;;;12.10;80.90;;;;;;5039909;28;20021;-77
2021/04/30 10:45:24;;;;;;;26.70;20.90;;;12.10;80.90;;;;;;5045449;28;20025;-76
2021/04/30 10:48:08;;;;;;;25.55;20.13;;;12.10;81.30;;;;;;5073227;28;20437;-77
2021/04/30 10:50:35;;;;;;;30.38;21.10;;;12.10;81.50;;;;;;5048714;28;20043;-76
2021/04/30 10:53:24;;;;;;;29.17;20.35;;;12.20;81.40;;;;;;5058738;28;20032;-77
2021/04/30 10:55:50;;;;;;;27.48;20.77;;;12.20;81.20;;;;;;5061033;28;20021;-78
2021/04/30 10:58:35;;;;;;;25.15;19.50;;;12.30;81.30;;;;;;5076400;28;20024;-77
2021/04/30 11:01:31;;;;;;;27.98;19.67;;;12.30;81.20;;;;;;5077990;28;20028;-78
2021/04/30 11:04:09;;;;;;;23.25;18.25;;;12.40;81.10;;;;;;5056461;28;20525;-78
2021/04/30 11:06:37;;;;;;;27.23;17.52;;;12.50;81.00;;;;;;5063166;28;20103;-78
2021/04/30 11:09:32;;;;;;;24.30;17.45;;;12.70;80.90;;;;;;5074597;28;20048;-77
2021/04/30 11:12:18;;;;;;;24.23;16.50;;;13.00;80.40;;;;;;5068416;28;20440;-77
2021/04/30 11:15:10;;;;;;;20.05;15.48;;;13.40;79.20;;;;;;5081452;28;20048;-77
2021/04/30 11:17:53;;;;;;;23.08;16.15;;;13.80;79.20;;;;;;5071998;28;20039;-77
2021/04/30 11:20:21;;;;;;;22.27;16.10;;;14.00;78.20;;;;;;5057984;28;20051;-76
2021/04/30 11:23:17;;;;;;;19.60;15.25;;;14.20;77.80;;;;;;5076166;28;20078;-75
2021/04/30 11:26:05;;;;;;;18.95;14.25;;;14.40;76.80;;;;;;5063203;28;20507;-77
2021/04/30 11:28:31;;;;;;;20.88;14.18;;;14.40;75.90;;;;;;5096032;28;20080;-76
2021/04/30 11:31:13;;;;;;;20.98;15.07;;;14.40;75.30;;;;;;5096255;28;20099;-78
2021/04/30 11:33:43;;;;;;;23.13;14.85;;;14.40;73.90;;;;;;5095845;28;20027;-72
2021/04/30 11:36:12;;;;;;;22.33;15.68;;;14.30;74.00;;;;;;5095926;28;20028;-72
2021/04/30 11:38:43;;;;;;;19.98;15.18;;;14.20;73.30;;;;;;5095714;28;20113;-75
2021/04/30 11:41:10;;;;;;;18.55;13.57;;;14.10;73.20;;;;;;5063603;28;20017;-72
2021/04/30 11:43:39;;;;;;;20.63;14.95;;;14.00;73.40;;;;;;5070191;28;20020;-72
2021/04/30 11:46:06;;;;;;;21.42;14.93;;;14.00;72.80;;;;;;5061301;28;20468;-71
2021/04/30 11:48:32;;;;;;;20.17;14.25;;;14.00;73.20;;;;;;5075195;28;20032;-73
2021/04/30 11:51:03;;;;;;;18.52;13.40;;;14.00;72.80;;;;;;5075420;28;20032;-73
2021/04/30 11:53:30;;;;;;;20.00;14.93;;;14.00;73.00;;;;;;5075413;28;20341;-71
2021/04/30 11:55:57;;;;;;;19.27;14.15;;;14.10;72.60;;;;;;5057210;28;20419;-72
2021/04/30 11:58:37;;;;;;;21.42;15.25;;;14.20;72.50;;;;;;5074930;28;20051;-75
2021/04/30 12:01:04;;;;;;;17.90;13.60;;;14.30;71.70;;;;;;5056835;28;20119;-72
2021/04/30 12:03:52;;;;;;;18.60;13.65;;;14.40;71.10;;;;;;5074478;28;20476;-72
2021/04/30 12:06:20;;;;;;;16.88;11.82;;;14.50;71.30;;;;;;5074530;28;20060;-72
2021/04/30 12:08:47;;;;;;;15.88;11.32;;;14.70;71.00;;;;;;5074620;28;20032;-73
2021/04/30 12:11:35;;;;;;;18.77;12.82;;;14.70;70.30;;;;;;5040147;28;20028;-72
2021/04/30 12:14:06;;;;;;;15.85;11.50;;;14.70;70.00;;;;;;5074935;28;20024;-72
2021/04/30 12:16:32;;;;;;;17.80;11.80;;;14.80;69.80;;;;;;5077089;28;20475;-71
2021/04/30 12:18:58;;;;;;;17.05;12.45;;;14.80;69.80;;;;;;5070473;28;20060;-72
2021/04/30 12:21:24;;;;;;;18.02;11.38;;;14.80;70.00;;;;;;5053251;28;20481;-72
2021/04/30 12:23:51;;;;;;;16.45;11.27;;;14.90;70.00;;;;;;5054207;28;20425;-71
2021/04/30 12:26:27;;;;;;;15.15;10.20;;;15.10;69.90;;;;;;5020163;28;20029;-72
2021/04/30 12:28:56;;;;;;;12.48;9.02;;;15.20;69.20;;;;;;5052979;28;20028;-72
2021/04/30 12:31:23;;;;;;;16.50;8.90;;;15.20;68.50;;;;;;5089226;28;20028;-74
2021/04/30 12:33:51;;;;;;;13.00;8.93;;;15.30;69.00;;;;;;5076739;28;20115;-74
2021/04/30 12:36:26;;;;;;;13.20;9.05;;;15.60;68.10;;;;;;5076131;28;20485;-72